Pagina principale
METAR-TAF:

METAR-TAF

Aeroporti :

Ancona, Italia

latitudine: 43-37N, longitudine: 013-22E, altezza: 12 m

Osservazione

Il bollettino è stato emesso 44 minuti fa, alle 14:50 UTC
Vento 9 kt da est/nord-est, variando fra nord-est e est/sud-est
Temperature 30°C
Umidità 46%
Pressione 1014 hPa
Visibilità 10 km o più
nessuna nube inferiore a 1500 m e nessun cumulonembo

METAR: LIPY 181450Z 07009KT 040V120 CAVOK 30/17 Q1014

Ora: 17:34 (15:34 UTC)

Previsione

Il bollettino è stato emesso 4 ore e 34 minuti fa, alle 11:00 UTC
Previsione valida dal 18 alle 12 UTC al 19 alle 12 UTC
Vento 10 kt da nord-est
Visibilità 10 km o più
nessuna nube inferiore a 1500 m e nessun cumulonembo
Evoluzione graduale
dal 18 alle 16 UTC al 18 alle 18 UTC
Vento 5 kt da direzioni variabili
Evoluzione graduale
dal 19 alle 10 UTC al 19 alle 12 UTC
Vento 10 kt da nord-est

TAF: LIPY 181100Z 1812/1912 05010KT CAVOK BECMG 1816/1818 VRB05KT BECMG 1910/1912 04010KT

Osservazioni e previsioni meteorologiche di più di 4000 aeroporti (messaggi METAR e TAF).

Le stazioni disponibili sono rappresentate dai dischi gialli e rossi sulla carta.

Puntare il mouse per vedere il nome della stazione.

Clicca sopra per visualizzare le osservazioni e previsioni meteorologiche.

Per cambiare la mappa : fare clic sui pulsanti verdi con una croce nera per ingrandire, il pulsante verde con un trattino per diminuire, o sulla freccia verde per le mappe adiacenti.


METAR-TAF: